createdAt,value
2022-09-23T00:01:21.989Z,3.70
2022-09-23T00:03:49.938Z,3.60
2022-09-23T00:06:22.547Z,3.60
2022-09-23T00:08:51.899Z,3.60
2022-09-23T00:11:23.755Z,3.60
2022-09-23T00:13:55.976Z,3.60
2022-09-23T00:16:28.626Z,3.50
2022-09-23T00:18:56.752Z,3.50
2022-09-23T00:21:24.748Z,3.50
2022-09-23T00:23:54.021Z,3.50
2022-09-23T00:26:23.533Z,3.60
2022-09-23T00:28:51.433Z,3.70
2022-09-23T00:31:25.180Z,3.60
2022-09-23T00:34:01.567Z,3.70
2022-09-23T00:36:30.846Z,3.70
2022-09-23T00:38:58.364Z,3.70
2022-09-23T00:41:26.552Z,3.70
2022-09-23T00:43:57.192Z,3.70
2022-09-23T00:46:35.283Z,3.70
2022-09-23T00:49:29.530Z,3.80
2022-09-23T00:52:06.837Z,3.90
2022-09-23T00:54:34.231Z,3.80
2022-09-23T00:57:02.363Z,3.80
2022-09-23T00:59:30.059Z,3.80
2022-09-23T01:02:00.257Z,3.80
2022-09-23T01:04:29.916Z,3.80
2022-09-23T01:06:57.482Z,3.80
2022-09-23T01:09:25.612Z,3.80
2022-09-23T01:12:39.197Z,3.80
2022-09-23T01:15:23.140Z,3.80
2022-09-23T01:18:16.780Z,3.90
2022-09-23T01:21:08.808Z,3.90
2022-09-23T01:24:00.036Z,4.00
2022-09-23T01:26:40.826Z,3.90
2022-09-23T01:29:48.180Z,3.90
2022-09-23T01:32:58.448Z,3.90
2022-09-23T01:35:48.106Z,3.90
2022-09-23T01:38:41.017Z,3.80
2022-09-23T01:41:38.753Z,3.70
2022-09-23T01:44:51.927Z,3.70
2022-09-23T01:47:41.897Z,3.80
2022-09-23T01:50:19.581Z,3.90
2022-09-23T01:52:48.562Z,4.00
2022-09-23T01:55:47.738Z,3.80
2022-09-23T01:58:27.632Z,3.80
2022-09-23T02:01:05.285Z,3.70
2022-09-23T02:03:54.996Z,3.80
2022-09-23T02:06:32.052Z,3.80
2022-09-23T02:09:15.219Z,3.80
2022-09-23T02:11:48.584Z,3.80
2022-09-23T02:14:29.373Z,3.80
2022-09-23T02:17:07.185Z,3.90
2022-09-23T02:19:50.639Z,4.00
2022-09-23T02:22:28.359Z,3.90
2022-09-23T02:24:58.085Z,3.90
2022-09-23T02:27:50.569Z,3.90
2022-09-23T02:30:26.468Z,3.90
2022-09-23T02:33:11.056Z,3.80
2022-09-23T02:36:03.452Z,3.80
2022-09-23T02:38:46.382Z,3.80
2022-09-23T02:41:48.885Z,3.80
2022-09-23T02:44:20.421Z,3.70
2022-09-23T02:46:47.689Z,3.60
2022-09-23T02:49:28.369Z,3.60
2022-09-23T02:52:00.130Z,3.50
2022-09-23T02:54:29.247Z,3.50
2022-09-23T02:56:56.669Z,3.40
2022-09-23T02:59:24.663Z,3.50
2022-09-23T03:02:19.145Z,3.50
2022-09-23T03:05:17.755Z,3.40
2022-09-23T03:08:15.840Z,3.40
2022-09-23T03:11:12.009Z,3.30
2022-09-23T03:14:18.223Z,3.40
2022-09-23T03:17:13.774Z,3.30
2022-09-23T03:19:58.602Z,3.30
2022-09-23T03:22:36.870Z,3.20
2022-09-23T03:25:12.649Z,3.30
2022-09-23T03:27:41.312Z,3.20
2022-09-23T03:30:10.462Z,3.20
2022-09-23T03:32:41.918Z,3.10
2022-09-23T03:35:09.758Z,3.20
2022-09-23T03:38:00.239Z,3.10
2022-09-23T03:40:32.094Z,3.00
2022-09-23T03:43:01.034Z,3.00
2022-09-23T03:45:33.549Z,3.00
2022-09-23T03:48:01.905Z,3.00
2022-09-23T03:50:29.560Z,3.00
2022-09-23T03:52:56.828Z,2.90
2022-09-23T03:55:24.191Z,3.00
2022-09-23T03:57:53.894Z,3.10
2022-09-23T04:00:21.048Z,3.10
2022-09-23T04:02:48.320Z,3.00
2022-09-23T04:05:15.680Z,3.10
2022-09-23T04:07:42.845Z,3.00
2022-09-23T04:10:11.307Z,3.00
2022-09-23T04:12:38.644Z,3.00
2022-09-23T04:15:06.839Z,3.20
2022-09-23T04:17:34.017Z,3.10
2022-09-23T04:20:01.502Z,3.00
2022-09-23T04:22:28.690Z,3.00
2022-09-23T04:24:55.845Z,3.00
2022-09-23T04:27:22.986Z,3.00
2022-09-23T04:29:50.545Z,3.00
2022-09-23T04:32:17.701Z,3.00
2022-09-23T04:34:44.959Z,3.00
2022-09-23T04:37:12.111Z,2.90
2022-09-23T04:39:39.297Z,2.90
2022-09-23T04:42:06.691Z,3.10
2022-09-23T04:44:33.913Z,3.00
2022-09-23T04:47:01.082Z,3.20
2022-09-23T04:49:28.223Z,3.20
2022-09-23T04:51:55.440Z,3.20
2022-09-23T04:54:22.653Z,3.30
2022-09-23T04:56:49.843Z,3.30
2022-09-23T04:59:17.116Z,3.30
2022-09-23T05:01:44.352Z,3.30
2022-09-23T05:04:12.004Z,3.30
2022-09-23T05:06:39.420Z,3.30
2022-09-23T05:09:08.824Z,3.40
2022-09-23T05:11:36.298Z,3.40
2022-09-23T05:14:03.861Z,3.50
2022-09-23T05:16:31.723Z,3.40
2022-09-23T05:18:59.041Z,3.40
2022-09-23T05:21:27.758Z,3.50
2022-09-23T05:23:57.600Z,3.50
2022-09-23T05:26:28.306Z,3.50
2022-09-23T05:28:56.738Z,3.60
2022-09-23T05:31:30.017Z,3.60
2022-09-23T05:34:00.917Z,3.60
2022-09-23T05:36:35.576Z,3.60
2022-09-23T05:39:05.528Z,3.50
2022-09-23T05:41:32.813Z,3.50
2022-09-23T05:44:00.087Z,3.50
2022-09-23T05:46:30.592Z,3.60
2022-09-23T05:49:02.911Z,3.60
2022-09-23T05:51:33.300Z,3.60
2022-09-23T05:54:01.554Z,3.60
2022-09-23T05:56:29.059Z,3.60
2022-09-23T05:59:00.463Z,3.70
2022-09-23T06:01:31.651Z,3.70
2022-09-23T06:04:00.889Z,3.80
2022-09-23T06:06:32.926Z,3.80
2022-09-23T06:09:01.062Z,3.70
2022-09-23T06:11:32.698Z,3.80
2022-09-23T06:14:00.916Z,3.80
2022-09-23T06:16:31.387Z,3.70
2022-09-23T06:19:03.167Z,3.80
2022-09-23T06:21:38.979Z,3.80
2022-09-23T06:24:09.348Z,3.80
2022-09-23T06:26:38.058Z,3.80
2022-09-23T06:29:12.494Z,3.90
2022-09-23T06:31:40.104Z,4.00
2022-09-23T06:34:12.730Z,4.00
2022-09-23T06:36:46.228Z,4.10
2022-09-23T06:39:16.709Z,4.10
2022-09-23T06:41:44.927Z,4.20
2022-09-23T06:44:13.762Z,4.30
2022-09-23T06:46:42.104Z,4.40
2022-09-23T06:49:09.346Z,4.40
2022-09-23T06:51:36.527Z,4.40
2022-09-23T06:54:03.899Z,4.50
2022-09-23T06:56:34.882Z,4.60
2022-09-23T06:59:09.487Z,4.60
2022-09-23T07:01:36.861Z,4.70
2022-09-23T07:04:04.207Z,4.80
2022-09-23T07:06:31.711Z,4.90
2022-09-23T07:08:58.855Z,4.90
2022-09-23T07:11:26.126Z,5.00
2022-09-23T07:13:53.311Z,5.00
2022-09-23T07:16:20.618Z,5.20
2022-09-23T07:18:48.137Z,5.30
2022-09-23T07:21:18.789Z,5.40
2022-09-23T07:23:49.213Z,5.50
2022-09-23T07:26:18.112Z,5.60
2022-09-23T07:28:45.338Z,5.70
2022-09-23T07:31:23.124Z,5.80
2022-09-23T07:33:58.599Z,5.90
2022-09-23T07:36:26.121Z,6.10
2022-09-23T07:38:54.082Z,6.20
2022-09-23T07:41:21.396Z,6.20
2022-09-23T07:43:48.565Z,6.40
2022-09-23T07:46:17.974Z,6.40
2022-09-23T07:48:46.357Z,6.50
2022-09-23T07:51:19.645Z,6.60
2022-09-23T07:53:49.642Z,6.70
2022-09-23T07:56:19.190Z,6.70
2022-09-23T07:58:48.170Z,6.90
2022-09-23T08:01:15.421Z,6.90
2022-09-23T08:03:45.781Z,7.00
2022-09-23T08:06:13.908Z,7.00
2022-09-23T08:08:42.065Z,7.10
2022-09-23T08:11:12.833Z,7.10
2022-09-23T08:13:41.588Z,7.20
2022-09-23T08:16:09.949Z,7.30
2022-09-23T08:18:38.269Z,7.40
2022-09-23T08:21:06.010Z,7.40
2022-09-23T08:23:33.191Z,7.50
2022-09-23T08:26:05.551Z,7.50
2022-09-23T08:28:33.263Z,7.60
2022-09-23T08:31:01.466Z,7.60
2022-09-23T08:33:28.952Z,7.70
2022-09-23T08:36:01.977Z,7.80
2022-09-23T08:38:30.384Z,7.90
2022-09-23T08:41:43.533Z,7.90
2022-09-23T08:44:21.936Z,7.90
2022-09-23T08:47:09.081Z,8.00
2022-09-23T08:49:48.221Z,8.10
2022-09-23T08:52:32.052Z,8.10
2022-09-23T08:54:59.727Z,8.20
2022-09-23T08:58:24.933Z,8.30
2022-09-23T09:01:43.670Z,8.40
2022-09-23T09:04:33.331Z,8.50
2022-09-23T09:07:35.204Z,8.50
2022-09-23T09:10:33.358Z,8.50
2022-09-23T09:13:04.693Z,8.50
2022-09-23T09:15:40.801Z,8.60
2022-09-23T09:18:19.660Z,8.80
2022-09-23T09:21:12.623Z,8.80
2022-09-23T09:23:56.958Z,8.80
2022-09-23T09:26:29.247Z,8.80
2022-09-23T09:29:23.693Z,8.90
2022-09-23T09:31:58.804Z,9.00
2022-09-23T09:34:49.808Z,9.10
2022-09-23T09:37:45.117Z,9.20
2022-09-23T09:40:14.526Z,9.30
2022-09-23T09:42:47.061Z,9.30
2022-09-23T09:46:07.121Z,9.40
2022-09-23T09:48:45.781Z,9.40
2022-09-23T09:51:21.398Z,9.40
2022-09-23T09:53:50.119Z,9.50
2022-09-23T09:56:21.519Z,9.60
2022-09-23T09:59:00.816Z,9.70
2022-09-23T10:01:33.061Z,9.80
2022-09-23T10:04:33.894Z,9.80
2022-09-23T10:07:14.005Z,9.90
2022-09-23T10:09:50.119Z,9.90
2022-09-23T10:12:21.140Z,10.10
2022-09-23T10:14:51.885Z,10.30
2022-09-23T10:17:33.736Z,10.40
2022-09-23T10:20:08.097Z,10.40
2022-09-23T10:22:41.918Z,10.40
2022-09-23T10:25:19.158Z,10.50
2022-09-23T10:27:46.473Z,10.60
2022-09-23T10:30:27.346Z,10.70
2022-09-23T10:32:55.956Z,10.80
2022-09-23T10:35:25.619Z,11.00
2022-09-23T10:37:54.999Z,11.40
2022-09-23T10:40:37.461Z,12.40
2022-09-23T10:43:42.083Z,13.80
2022-09-23T10:46:20.273Z,15.30
2022-09-23T10:49:16.160Z,16.40
2022-09-23T10:52:26.932Z,18.00
2022-09-23T10:55:20.460Z,18.20
2022-09-23T10:58:25.118Z,18.80
2022-09-23T11:01:23.907Z,19.00
2022-09-23T11:04:37.189Z,19.90
2022-09-23T11:07:37.097Z,20.20
2022-09-23T11:10:52.708Z,21.00
2022-09-23T11:13:54.882Z,21.60
2022-09-23T11:16:41.761Z,21.50
2022-09-23T11:19:50.129Z,22.10
2022-09-23T11:22:43.690Z,22.40
2022-09-23T11:25:47.154Z,22.50
2022-09-23T11:28:44.707Z,22.70
2022-09-23T11:32:04.127Z,22.60
2022-09-23T11:34:54.324Z,22.40
2022-09-23T11:37:51.048Z,22.40
2022-09-23T11:40:42.385Z,22.20
2022-09-23T11:43:23.157Z,22.10
2022-09-23T11:46:30.752Z,22.30
2022-09-23T11:49:22.815Z,22.00
2022-09-23T11:51:54.330Z,21.80
2022-09-23T11:54:48.924Z,21.50
2022-09-23T11:57:49.527Z,21.30
2022-09-23T12:00:26.149Z,21.10
2022-09-23T12:03:45.086Z,21.20
2022-09-23T12:06:45.676Z,21.30
2022-09-23T12:10:05.032Z,21.20
2022-09-23T12:12:57.421Z,21.30
2022-09-23T12:16:02.143Z,21.00
2022-09-23T12:19:00.273Z,20.70
2022-09-23T12:22:09.244Z,20.50
2022-09-23T12:24:56.430Z,20.40
2022-09-23T12:27:37.482Z,20.30
2022-09-23T12:30:20.512Z,20.40
2022-09-23T12:32:48.378Z,20.30
2022-09-23T12:35:32.997Z,20.30
2022-09-23T12:38:02.287Z,20.30
2022-09-23T12:40:36.786Z,20.20
2022-09-23T12:43:06.163Z,20.40
2022-09-23T12:45:39.846Z,20.30
2022-09-23T12:48:16.287Z,20.30
2022-09-23T12:50:54.589Z,20.10
2022-09-23T12:53:34.968Z,20.30
2022-09-23T12:56:19.515Z,20.30
2022-09-23T12:58:47.192Z,20.50
2022-09-23T13:01:25.977Z,20.30
2022-09-23T13:03:58.790Z,20.10
2022-09-23T13:06:41.032Z,20.20
2022-09-23T13:09:21.522Z,20.20
2022-09-23T13:11:49.395Z,20.00
2022-09-23T13:14:27.499Z,20.20
2022-09-23T13:16:57.209Z,20.10
2022-09-23T13:19:27.515Z,20.20
2022-09-23T13:21:54.878Z,20.30
2022-09-23T13:24:25.223Z,20.40
2022-09-23T13:27:19.881Z,20.30
2022-09-23T13:30:19.311Z,20.30
2022-09-23T13:33:03.472Z,20.10
2022-09-23T13:35:39.690Z,20.10
2022-09-23T13:38:31.571Z,20.10
2022-09-23T13:41:11.126Z,20.00
2022-09-23T13:43:43.595Z,20.20
2022-09-23T13:46:17.966Z,20.10
2022-09-23T13:48:48.430Z,20.10
2022-09-23T13:51:36.520Z,20.20
2022-09-23T13:54:05.622Z,20.20
2022-09-23T13:56:34.235Z,20.40
2022-09-23T13:59:27.735Z,20.30
2022-09-23T14:02:14.248Z,20.30
2022-09-23T14:04:41.693Z,20.40
2022-09-23T14:07:14.262Z,20.60
2022-09-23T14:09:49.931Z,20.50
2022-09-23T14:12:18.334Z,20.70
2022-09-23T14:14:45.801Z,20.90
2022-09-23T14:17:22.376Z,20.70
2022-09-23T14:19:51.433Z,20.70
2022-09-23T14:22:29.334Z,20.60
2022-09-23T14:24:58.748Z,20.50
2022-09-23T14:27:32.860Z,20.40
2022-09-23T14:30:03.792Z,20.30
2022-09-23T14:32:31.825Z,20.00
2022-09-23T14:35:02.000Z,19.90
2022-09-23T14:37:38.247Z,20.10
2022-09-23T14:40:15.128Z,20.00
2022-09-23T14:43:05.877Z,20.20
2022-09-23T14:45:40.072Z,20.30
2022-09-23T14:48:17.700Z,20.30
2022-09-23T14:51:10.795Z,20.50
2022-09-23T14:53:42.762Z,20.50
2022-09-23T14:56:20.730Z,20.40
2022-09-23T14:59:00.358Z,20.10
2022-09-23T15:01:33.413Z,19.90
2022-09-23T15:04:17.601Z,19.70
2022-09-23T15:06:58.315Z,19.70
2022-09-23T15:09:31.466Z,19.60
2022-09-23T15:12:05.213Z,19.70
2022-09-23T15:14:41.777Z,19.80
2022-09-23T15:17:36.721Z,19.70
2022-09-23T15:20:17.242Z,19.70
2022-09-23T15:22:51.529Z,19.60
2022-09-23T15:25:33.844Z,19.40
2022-09-23T15:28:08.622Z,18.30
2022-09-23T15:30:37.399Z,18.20
2022-09-23T15:33:05.797Z,17.80
2022-09-23T15:35:33.348Z,17.40
2022-09-23T15:38:01.880Z,17.10
2022-09-23T15:40:36.501Z,16.80
2022-09-23T15:43:36.298Z,16.50
2022-09-23T15:46:20.537Z,16.30
2022-09-23T15:48:59.109Z,16.10
2022-09-23T15:51:27.901Z,16.00
2022-09-23T15:53:55.772Z,15.70
2022-09-23T15:56:24.965Z,15.60
2022-09-23T15:58:52.169Z,15.60
2022-09-23T16:01:32.289Z,15.40
2022-09-23T16:03:59.711Z,15.30
2022-09-23T16:06:27.272Z,15.20
2022-09-23T16:08:55.077Z,15.10
2022-09-23T16:11:26.332Z,15.00
2022-09-23T16:13:54.102Z,14.90
2022-09-23T16:16:21.441Z,14.80
2022-09-23T16:18:50.059Z,14.70
2022-09-23T16:21:21.350Z,14.60
2022-09-23T16:23:55.031Z,14.60
2022-09-23T16:26:31.013Z,14.40
2022-09-23T16:29:00.613Z,14.40
2022-09-23T16:31:28.659Z,14.30
2022-09-23T16:33:56.251Z,14.10
2022-09-23T16:36:42.598Z,14.00
2022-09-23T16:39:13.984Z,14.00
2022-09-23T16:41:41.458Z,13.90
2022-09-23T16:44:08.677Z,13.80
2022-09-23T16:46:36.400Z,13.80
2022-09-23T16:49:04.310Z,13.70
2022-09-23T16:51:34.457Z,13.60
2022-09-23T16:54:01.876Z,13.50
2022-09-23T16:56:29.497Z,13.50
2022-09-23T16:58:57.406Z,13.40
2022-09-23T17:01:28.625Z,13.30
2022-09-23T17:03:55.815Z,13.20
2022-09-23T17:06:22.955Z,13.10
2022-09-23T17:08:50.148Z,13.10
2022-09-23T17:11:17.975Z,12.90
2022-09-23T17:13:45.685Z,12.80
2022-09-23T17:16:31.197Z,12.80
2022-09-23T17:18:58.956Z,12.70
2022-09-23T17:22:22.119Z,12.70
2022-09-23T17:24:49.261Z,12.60
2022-09-23T17:27:16.500Z,12.50
2022-09-23T17:29:43.756Z,12.50
2022-09-23T17:32:11.072Z,12.40
2022-09-23T17:34:38.723Z,12.40
2022-09-23T17:37:06.197Z,12.40
2022-09-23T17:39:33.551Z,12.40
2022-09-23T17:42:01.256Z,12.30
2022-09-23T17:44:40.772Z,12.20
2022-09-23T17:47:08.143Z,12.10
2022-09-23T17:49:35.697Z,12.10
2022-09-23T17:52:03.923Z,12.00
2022-09-23T17:54:35.054Z,12.00
2022-09-23T17:57:03.474Z,11.90
2022-09-23T17:59:30.958Z,11.90
2022-09-23T18:01:58.447Z,11.90
2022-09-23T18:04:25.888Z,11.90
2022-09-23T18:06:53.158Z,11.80
2022-09-23T18:09:21.091Z,11.70
2022-09-23T18:11:48.627Z,11.60
2022-09-23T18:14:23.649Z,11.60
2022-09-23T18:16:53.458Z,11.60
2022-09-23T18:19:23.556Z,11.60
2022-09-23T18:21:55.986Z,11.40
2022-09-23T18:24:33.073Z,11.40
2022-09-23T18:27:02.212Z,11.40
2022-09-23T18:29:30.291Z,11.30
2022-09-23T18:31:58.530Z,11.30
2022-09-23T18:34:25.774Z,11.20
2022-09-23T18:36:54.013Z,11.20
2022-09-23T18:39:22.209Z,11.20
2022-09-23T18:41:50.670Z,11.20
2022-09-23T18:44:18.388Z,11.20
2022-09-23T18:46:45.620Z,11.10
2022-09-23T18:49:13.288Z,11.10
2022-09-23T18:52:01.899Z,11.10
2022-09-23T18:54:30.878Z,11.10
2022-09-23T18:56:59.343Z,11.10
2022-09-23T18:59:29.030Z,11.00
2022-09-23T19:01:57.499Z,10.60
2022-09-23T19:04:27.237Z,10.90
2022-09-23T19:06:56.251Z,10.90
2022-09-23T19:09:23.983Z,10.80
2022-09-23T19:11:53.084Z,10.60
2022-09-23T19:14:21.059Z,10.50
2022-09-23T19:16:48.788Z,10.40
2022-09-23T19:19:16.795Z,10.40
2022-09-23T19:21:44.076Z,10.30
2022-09-23T19:24:15.175Z,10.20
2022-09-23T19:26:45.258Z,10.10
2022-09-23T19:29:18.435Z,10.10
2022-09-23T19:31:47.416Z,10.00
2022-09-23T19:34:19.349Z,9.90
2022-09-23T19:36:48.234Z,9.90
2022-09-23T19:39:25.590Z,9.80
2022-09-23T19:41:55.255Z,9.90
2022-09-23T19:44:25.615Z,9.80
2022-09-23T19:46:56.890Z,9.80
2022-09-23T19:49:29.493Z,9.80
2022-09-23T19:51:58.442Z,9.70
2022-09-23T19:54:27.085Z,9.60
2022-09-23T19:56:55.126Z,9.50
2022-09-23T19:59:22.947Z,9.40
2022-09-23T20:01:53.517Z,9.40
2022-09-23T20:04:23.053Z,9.30
2022-09-23T20:06:50.651Z,9.40
2022-09-23T20:09:18.518Z,9.40
2022-09-23T20:11:47.835Z,9.30
2022-09-23T20:14:15.668Z,9.20
2022-09-23T20:16:47.641Z,9.20
2022-09-23T20:19:15.177Z,9.20
2022-09-23T20:21:43.716Z,9.20
2022-09-23T20:24:12.428Z,9.10
2022-09-23T20:26:41.326Z,9.10
2022-09-23T20:29:09.063Z,9.20
2022-09-23T20:31:36.861Z,9.10
2022-09-23T20:34:06.096Z,9.10
2022-09-23T20:36:35.622Z,9.20
2022-09-23T20:39:07.223Z,9.10
2022-09-23T20:41:38.102Z,9.00
2022-09-23T20:44:10.469Z,9.00
2022-09-23T20:46:39.521Z,8.90
2022-09-23T20:49:08.821Z,8.80
2022-09-23T20:51:38.605Z,8.80
2022-09-23T20:54:06.563Z,8.70
2022-09-23T20:56:34.470Z,8.70
2022-09-23T20:59:05.093Z,8.70
2022-09-23T21:01:36.672Z,8.70
2022-09-23T21:04:04.679Z,8.80
2022-09-23T21:06:34.573Z,8.80
2022-09-23T21:09:02.359Z,8.70
2022-09-23T21:11:29.835Z,8.70
2022-09-23T21:13:57.020Z,8.60
2022-09-23T21:16:25.255Z,8.60
2022-09-23T21:18:54.251Z,8.40
2022-09-23T21:21:22.533Z,8.40
2022-09-23T21:23:51.090Z,8.40
2022-09-23T21:26:26.974Z,8.50
2022-09-23T21:29:01.499Z,8.40
2022-09-23T21:31:35.562Z,8.30
2022-09-23T21:34:09.865Z,8.30
2022-09-23T21:36:40.256Z,8.30
2022-09-23T21:39:09.374Z,8.30
2022-09-23T21:41:38.539Z,8.30
2022-09-23T21:44:06.780Z,8.30
2022-09-23T21:46:35.558Z,8.20
2022-09-23T21:49:04.244Z,8.20
2022-09-23T21:51:38.392Z,7.80
2022-09-23T21:54:08.121Z,8.10
2022-09-23T21:56:35.361Z,8.10
2022-09-23T21:59:04.177Z,8.10
2022-09-23T22:01:35.623Z,8.10
2022-09-23T22:04:06.770Z,8.00
2022-09-23T22:06:37.222Z,7.80
2022-09-23T22:09:09.075Z,7.70
2022-09-23T22:11:38.109Z,7.70
2022-09-23T22:14:10.070Z,7.70
2022-09-23T22:16:37.441Z,7.70
2022-09-23T22:19:05.908Z,7.70
2022-09-23T22:21:36.520Z,7.70
2022-09-23T22:24:07.012Z,7.80
2022-09-23T22:26:44.592Z,7.90
2022-09-23T22:29:15.635Z,7.90
2022-09-23T22:31:42.907Z,7.80
2022-09-23T22:34:25.512Z,7.80
2022-09-23T22:36:59.667Z,7.90
2022-09-23T22:39:29.072Z,7.80
2022-09-23T22:41:59.495Z,7.80
2022-09-23T22:44:26.721Z,7.80
2022-09-23T22:46:53.874Z,7.80
2022-09-23T22:49:21.109Z,7.80
2022-09-23T22:51:48.393Z,7.70
2022-09-23T22:54:15.549Z,7.80
2022-09-23T22:56:42.862Z,7.70
2022-09-23T22:59:12.697Z,7.80
2022-09-23T23:01:40.698Z,7.80
2022-09-23T23:04:09.906Z,7.80
2022-09-23T23:06:37.335Z,7.80
2022-09-23T23:09:11.414Z,7.80
2022-09-23T23:11:38.589Z,7.80
2022-09-23T23:14:05.911Z,7.80
2022-09-23T23:16:33.287Z,7.90
2022-09-23T23:19:06.798Z,7.90
2022-09-23T23:21:34.537Z,7.80
2022-09-23T23:24:02.461Z,7.70
2022-09-23T23:26:30.986Z,7.70
2022-09-23T23:28:58.489Z,7.80
2022-09-23T23:31:28.917Z,7.80
2022-09-23T23:33:56.264Z,7.70
2022-09-23T23:36:24.074Z,7.60
2022-09-23T23:38:52.066Z,7.70
2022-09-23T23:41:22.998Z,7.70
2022-09-23T23:43:59.988Z,7.70
2022-09-23T23:46:30.413Z,7.80
2022-09-23T23:48:58.242Z,7.80
2022-09-23T23:51:27.254Z,7.80
2022-09-23T23:53:55.993Z,7.80
2022-09-23T23:56:26.167Z,7.80
2022-09-23T23:59:01.864Z,7.80
